sensor_id;sensor_type;location;lat;lon;timestamp;pressure;altitude;pressure_sealevel;temperature;humidity
3832;BME280;12460;42.662;23.288;2023-03-15T00:02:54;93557.31;;;8.28;42.32
3832;BME280;12460;42.662;23.288;2023-03-15T00:17:59;93551.56;;;8.26;42.46
3832;BME280;12460;42.662;23.288;2023-03-15T00:33:06;93540.41;;;8.19;42.84
3832;BME280;12460;42.662;23.288;2023-03-15T00:48:11;93527.84;;;8.27;43.34
3832;BME280;12460;42.662;23.288;2023-03-15T01:03:17;93512.56;;;8.38;42.50
3832;BME280;12460;42.662;23.288;2023-03-15T01:18:22;93496.25;;;8.44;42.98
3832;BME280;12460;42.662;23.288;2023-03-15T01:33:27;93474.75;;;8.56;43.06
3832;BME280;12460;42.662;23.288;2023-03-15T02:04:03;93450.72;;;8.63;42.64
3832;BME280;12460;42.662;23.288;2023-03-15T02:19:37;93418.66;;;8.37;44.24
3832;BME280;12460;42.662;23.288;2023-03-15T02:34:47;93409.66;;;8.38;44.09
3832;BME280;12460;42.662;23.288;2023-03-15T02:49:52;93404.81;;;8.39;43.93
3832;BME280;12460;42.662;23.288;2023-03-15T03:04:57;93402.22;;;8.24;44.44
3832;BME280;12460;42.662;23.288;2023-03-15T03:20:04;93369.44;;;8.07;44.89
3832;BME280;12460;42.662;23.288;2023-03-15T03:35:15;93374.78;;;8.13;44.74
3832;BME280;12460;42.662;23.288;2023-03-15T03:50:18;93365.50;;;8.20;45.92
3832;BME280;12460;42.662;23.288;2023-03-15T04:05:23;93330.44;;;8.09;45.88
3832;BME280;12460;42.662;23.288;2023-03-15T04:20:28;93337.63;;;8.12;46.52
3832;BME280;12460;42.662;23.288;2023-03-15T04:35:39;93333.53;;;8.13;46.82
3832;BME280;12460;42.662;23.288;2023-03-15T04:51:04;93326.16;;;8.18;46.22
3832;BME280;12460;42.662;23.288;2023-03-15T05:06:35;93319.28;;;8.28;45.40
3832;BME280;12460;42.662;23.288;2023-03-15T05:22:03;93324.34;;;8.03;46.19
3832;BME280;12460;42.662;23.288;2023-03-15T05:37:36;93314.09;;;8.25;45.03
3832;BME280;12460;42.662;23.288;2023-03-15T05:52:59;93318.16;;;8.60;43.11
3832;BME280;12460;42.662;23.288;2023-03-15T06:08:09;93307.22;;;8.93;43.78
3832;BME280;12460;42.662;23.288;2023-03-15T06:23:18;93318.03;;;11.21;37.57
3832;BME280;12460;42.662;23.288;2023-03-15T06:38:21;93294.31;;;12.38;35.36
3832;BME280;12460;42.662;23.288;2023-03-15T06:53:29;93301.31;;;13.84;32.93
3832;BME280;12460;42.662;23.288;2023-03-15T07:08:34;93287.53;;;15.26;30.36
3832;BME280;12460;42.662;23.288;2023-03-15T07:23:38;93296.53;;;16.88;27.97
3832;BME280;12460;42.662;23.288;2023-03-15T07:38:44;93269.28;;;17.67;26.47
3832;BME280;12460;42.662;23.288;2023-03-15T07:53:48;93255.44;;;19.11;24.35
3832;BME280;12460;42.662;23.288;2023-03-15T08:08:53;93270.31;;;18.88;24.48
3832;BME280;12460;42.662;23.288;2023-03-15T08:23:59;93251.78;;;17.92;25.41
3832;BME280;12460;42.662;23.288;2023-03-15T08:39:04;93231.84;;;18.47;25.15
3832;BME280;12460;42.662;23.288;2023-03-15T08:54:08;93231.63;;;19.65;24.18
3832;BME280;12460;42.662;23.288;2023-03-15T09:09:13;93250.84;;;17.68;26.07
3832;BME280;12460;42.662;23.288;2023-03-15T09:24:20;93245.06;;;15.71;29.10
3832;BME280;12460;42.662;23.288;2023-03-15T09:39:24;93227.88;;;15.82;28.82
3832;BME280;12460;42.662;23.288;2023-03-15T10:09:44;93223.41;;;13.28;33.40
3832;BME280;12460;42.662;23.288;2023-03-15T10:25:10;93225.19;;;13.61;32.89
3832;BME280;12460;42.662;23.288;2023-03-15T10:40:44;93214.63;;;13.61;32.72
3832;BME280;12460;42.662;23.288;2023-03-15T10:55:59;93217.13;;;13.30;33.37
3832;BME280;12460;42.662;23.288;2023-03-15T11:11:05;93206.94;;;13.37;33.63
3832;BME280;12460;42.662;23.288;2023-03-15T11:26:24;93205.28;;;13.45;33.49
3832;BME280;12460;42.662;23.288;2023-03-15T11:41:38;93202.22;;;13.93;36.10
3832;BME280;12460;42.662;23.288;2023-03-15T11:56:51;93184.34;;;14.30;38.58
3832;BME280;12460;42.662;23.288;2023-03-15T12:27:27;93156.88;;;14.32;38.65
3832;BME280;12460;42.662;23.288;2023-03-15T12:57:48;93135.13;;;14.08;37.77
3832;BME280;12460;42.662;23.288;2023-03-15T13:28:24;93137.63;;;14.72;35.72
3832;BME280;12460;42.662;23.288;2023-03-15T13:43:36;93134.19;;;14.73;35.56
3832;BME280;12460;42.662;23.288;2023-03-15T13:58:41;93154.41;;;14.67;37.30
3832;BME280;12460;42.662;23.288;2023-03-15T14:13:49;93143.25;;;14.42;38.23
3832;BME280;12460;42.662;23.288;2023-03-15T14:28:57;93153.22;;;14.30;39.73
3832;BME280;12460;42.662;23.288;2023-03-15T14:44:08;93142.94;;;14.23;40.50
3832;BME280;12460;42.662;23.288;2023-03-15T14:59:13;93135.75;;;13.65;38.11
3832;BME280;12460;42.662;23.288;2023-03-15T15:14:18;93143.88;;;13.46;39.57
3832;BME280;12460;42.662;23.288;2023-03-15T15:29:22;93153.13;;;12.96;40.35
3832;BME280;12460;42.662;23.288;2023-03-15T15:44:27;93163.66;;;12.70;42.57
3832;BME280;12460;42.662;23.288;2023-03-15T15:59:31;93189.03;;;12.45;45.83
3832;BME280;12460;42.662;23.288;2023-03-15T16:14:36;93192.00;;;12.24;47.06
3832;BME280;12460;42.662;23.288;2023-03-15T16:29:45;93192.44;;;11.95;49.37
3832;BME280;12460;42.662;23.288;2023-03-15T16:44:51;93203.94;;;11.64;51.62
3832;BME280;12460;42.662;23.288;2023-03-15T16:59:56;93231.22;;;11.62;52.72
3832;BME280;12460;42.662;23.288;2023-03-15T17:15:01;93262.41;;;11.54;52.88
3832;BME280;12460;42.662;23.288;2023-03-15T17:30:24;93262.28;;;11.41;53.04
3832;BME280;12460;42.662;23.288;2023-03-15T17:45:30;93281.97;;;11.41;52.87
3832;BME280;12460;42.662;23.288;2023-03-15T18:00:36;93303.94;;;10.88;54.23
3832;BME280;12460;42.662;23.288;2023-03-15T18:15:40;93315.66;;;10.42;55.78
3832;BME280;12460;42.662;23.288;2023-03-15T18:30:44;93321.94;;;10.74;56.92
3832;BME280;12460;42.662;23.288;2023-03-15T18:45:49;93342.28;;;10.84;57.45
3832;BME280;12460;42.662;23.288;2023-03-15T19:00:55;93360.97;;;10.79;58.25
3832;BME280;12460;42.662;23.288;2023-03-15T19:16:00;93376.28;;;10.67;57.91
3832;BME280;12460;42.662;23.288;2023-03-15T19:31:05;93387.00;;;10.59;58.72
3832;BME280;12460;42.662;23.288;2023-03-15T19:46:10;93398.09;;;10.57;59.89
3832;BME280;12460;42.662;23.288;2023-03-15T20:01:16;93416.78;;;10.52;59.99
3832;BME280;12460;42.662;23.288;2023-03-15T20:16:21;93427.00;;;10.47;60.60
3832;BME280;12460;42.662;23.288;2023-03-15T20:31:26;93443.31;;;10.30;61.09
3832;BME280;12460;42.662;23.288;2023-03-15T20:46:31;93456.69;;;10.20;61.43
3832;BME280;12460;42.662;23.288;2023-03-15T21:01:36;93481.56;;;9.75;63.49
3832;BME280;12460;42.662;23.288;2023-03-15T21:16:41;93508.09;;;9.07;63.22
3832;BME280;12460;42.662;23.288;2023-03-15T21:31:46;93519.66;;;8.22;64.66
3832;BME280;12460;42.662;23.288;2023-03-15T21:46:51;93559.00;;;7.97;63.61
3832;BME280;12460;42.662;23.288;2023-03-15T22:01:56;93579.50;;;7.83;64.32
3832;BME280;12460;42.662;23.288;2023-03-15T22:17:01;93592.13;;;7.74;63.62
3832;BME280;12460;42.662;23.288;2023-03-15T22:32:08;93595.06;;;7.42;63.83
3832;BME280;12460;42.662;23.288;2023-03-15T22:47:13;93621.28;;;7.29;62.67
3832;BME280;12460;42.662;23.288;2023-03-15T23:02:20;93640.06;;;7.12;63.37
3832;BME280;12460;42.662;23.288;2023-03-15T23:17:24;93670.28;;;7.05;62.16
3832;BME280;12460;42.662;23.288;2023-03-15T23:32:29;93669.66;;;6.90;62.72
3832;BME280;12460;42.662;23.288;2023-03-15T23:47:35;93683.59;;;6.65;62.85
